Time;durP1;ratioP1;P1;durP2;ratioP2;P2;SDS_P1;SDS_P2;PMS_P1;PMS_P2;Temp;Humidity;BMP_temperature;BMP_pressure;BME280_temperature;BME280_humidity;BME280_pressure;Samples;Min_cycle;Max_cycle;Signal;HPM_P1;HPM_P2
2023/12/22 00:02:05;;;;;;;;;;;20.10;46.70;;;;;;5073000;28;19920;-60
2023/12/22 00:04:31;;;;;;;;;;;20.10;46.70;;;;;;5071943;28;19962;-60
2023/12/22 00:06:58;;;;;;;;;;;20.10;46.70;;;;;;5073608;28;19954;-60
2023/12/22 00:09:25;;;;;;;;;;;20.10;46.70;;;;;;5074311;28;19968;-60
2023/12/22 00:11:53;;;;;;;;;;;20.10;46.70;;;;;;5062223;28;19970;-60
2023/12/22 00:14:20;;;;;;;;;;;20.10;46.80;;;;;;5054112;28;19928;-60
2023/12/22 00:16:47;;;;;;;;;;;20.10;46.70;;;;;;5054595;28;19920;-60
2023/12/22 00:19:13;;;;;;;;;;;20.10;46.80;;;;;;5053816;28;19927;-60
2023/12/22 00:21:40;;;;;;;;;;;20.10;46.80;;;;;;5063826;28;19920;-60
2023/12/22 00:24:07;;;;;;;;;;;20.10;46.80;;;;;;5061506;28;19935;-61
2023/12/22 00:26:34;;;;;;;;;;;20.10;46.80;;;;;;5069532;28;19931;-62
2023/12/22 00:29:03;;;;;;;;;;;20.10;46.80;;;;;;5070987;28;19924;-62
2023/12/22 00:31:30;;;;;;;;;;;20.10;46.80;;;;;;5064018;28;19921;-61
2023/12/22 00:33:56;;;;;;;;;;;20.10;46.80;;;;;;5070018;28;20001;-61
2023/12/22 00:36:24;;;;;;;;;;;20.10;46.80;;;;;;5051793;28;19924;-62
2023/12/22 00:38:51;;;;;;;;;;;20.10;46.80;;;;;;5049745;28;20020;-62
2023/12/22 00:41:17;;;;;;;;;;;20.10;47.40;;;;;;5057672;28;19924;-61
2023/12/22 00:43:44;;;;;;;;;;;20.10;46.80;;;;;;5065229;28;19924;-61
2023/12/22 00:46:12;;;;;;;;;;;20.10;46.90;;;;;;5069646;28;19931;-61
2023/12/22 00:48:39;;;;;;;;;;;20.10;46.90;;;;;;5070722;28;19920;-62
2023/12/22 00:51:06;;;;;;;;;;;20.10;46.90;;;;;;5062310;28;19921;-61
2023/12/22 00:53:33;;;;;;;;;;;20.10;46.90;;;;;;5060247;28;20002;-61
2023/12/22 00:56:00;;;;;;;;;;;20.10;46.90;;;;;;5052635;28;19943;-61
2023/12/22 00:58:27;;;;;;;;;;;20.10;46.90;;;;;;5065592;28;19924;-62
2023/12/22 01:00:53;;;;;;;;;;;20.10;46.90;;;;;;5069720;28;19921;-61
2023/12/22 01:03:22;;;;;;;;;;;20.10;46.90;;;;;;5063042;28;20419;-61
2023/12/22 01:05:48;;;;;;;;;;;20.10;46.90;;;;;;5057616;28;19921;-62
2023/12/22 01:08:15;;;;;;;;;;;20.10;46.90;;;;;;5067560;28;19970;-62
2023/12/22 01:10:42;;;;;;;;;;;20.10;47.50;;;;;;5056532;28;20007;-61
2023/12/22 01:13:09;;;;;;;;;;;20.10;47.00;;;;;;5059013;28;19921;-62
2023/12/22 01:15:36;;;;;;;;;;;20.10;46.90;;;;;;5062897;28;19931;-62
2023/12/22 01:18:02;;;;;;;;;;;20.10;47.00;;;;;;5072707;28;19977;-61
2023/12/22 01:20:30;;;;;;;;;;;20.10;47.00;;;;;;5073822;28;20183;-62
2023/12/22 01:22:57;;;;;;;;;;;20.10;46.90;;;;;;5066459;28;20181;-63
2023/12/22 01:25:24;;;;;;;;;;;20.10;47.00;;;;;;5071418;28;19931;-63
2023/12/22 01:27:52;;;;;;;;;;;20.10;47.00;;;;;;5073694;28;19956;-62
2023/12/22 01:30:18;;;;;;;;;;;20.10;47.00;;;;;;5069957;28;19932;-62
2023/12/22 01:32:46;;;;;;;;;;;20.10;47.00;;;;;;5064614;28;19932;-62
2023/12/22 01:35:14;;;;;;;;;;;20.10;47.00;;;;;;5069880;28;19921;-62
2023/12/22 01:37:42;;;;;;;;;;;20.10;47.00;;;;;;5061404;28;19920;-62
2023/12/22 01:40:09;;;;;;;;;;;20.10;47.00;;;;;;5052820;28;19962;-62
2023/12/22 01:42:36;;;;;;;;;;;20.10;47.00;;;;;;5068049;28;19921;-62
2023/12/22 01:45:03;;;;;;;;;;;20.10;47.00;;;;;;5054213;28;19921;-62
2023/12/22 01:47:29;;;;;;;;;;;20.10;47.10;;;;;;5054081;28;19921;-62
2023/12/22 01:49:56;;;;;;;;;;;20.10;47.00;;;;;;5055205;28;19974;-61
2023/12/22 01:52:23;;;;;;;;;;;20.10;47.10;;;;;;5064188;28;19920;-63
2023/12/22 01:54:51;;;;;;;;;;;20.10;47.10;;;;;;5068934;28;19925;-62
2023/12/22 01:57:18;;;;;;;;;;;20.10;47.10;;;;;;5053329;28;19928;-59
2023/12/22 01:59:45;;;;;;;;;;;20.10;47.10;;;;;;5066597;28;19966;-59
2023/12/22 02:02:12;;;;;;;;;;;20.10;47.10;;;;;;5065498;28;19928;-63
2023/12/22 02:04:39;;;;;;;;;;;20.10;47.10;;;;;;5069416;28;20265;-61
2023/12/22 02:07:08;;;;;;;;;;;20.10;47.10;;;;;;5071418;28;19924;-60
2023/12/22 02:09:35;;;;;;;;;;;20.10;47.10;;;;;;5072573;28;19974;-61
2023/12/22 02:12:03;;;;;;;;;;;20.10;47.10;;;;;;5071968;28;19921;-60
2023/12/22 02:14:30;;;;;;;;;;;20.10;47.10;;;;;;5064760;28;19920;-60
2023/12/22 02:16:59;;;;;;;;;;;20.10;47.10;;;;;;5072731;28;19974;-60
2023/12/22 02:19:28;;;;;;;;;;;20.10;47.10;;;;;;5070372;28;19925;-61
2023/12/22 02:22:01;;;;;;;;;;;20.10;47.10;;;;;;5060829;28;20022;-60
2023/12/22 02:24:30;;;;;;;;;;;20.10;47.20;;;;;;5054557;28;19971;-61
2023/12/22 02:26:57;;;;;;;;;;;20.00;47.00;;;;;;5056060;28;19924;-60
2023/12/22 02:29:23;;;;;;;;;;;20.10;47.10;;;;;;5064455;28;19921;-60
2023/12/22 02:31:50;;;;;;;;;;;20.10;47.20;;;;;;5056085;28;19927;-61
2023/12/22 02:34:19;;;;;;;;;;;20.10;47.70;;;;;;5063875;28;19966;-61
2023/12/22 02:36:56;;;;;;;;;;;20.10;47.20;;;;;;5064023;28;19920;-61
2023/12/22 02:39:23;;;;;;;;;;;20.10;47.20;;;;;;5071953;28;19947;-60
2023/12/22 02:41:51;;;;;;;;;;;20.10;47.20;;;;;;5072390;28;19932;-61
2023/12/22 02:44:18;;;;;;;;;;;20.10;47.20;;;;;;5054712;28;19994;-61
2023/12/22 02:46:44;;;;;;;;;;;20.10;47.20;;;;;;5056333;28;19928;-60
2023/12/22 02:49:13;;;;;;;;;;;20.10;47.20;;;;;;5071900;28;19920;-60
2023/12/22 02:51:39;;;;;;;;;;;20.10;47.20;;;;;;5069117;28;19931;-61
2023/12/22 02:54:06;;;;;;;;;;;20.00;47.10;;;;;;5057601;28;19981;-61
2023/12/22 02:56:33;;;;;;;;;;;20.10;47.20;;;;;;5067429;28;19963;-61
2023/12/22 02:59:01;;;;;;;;;;;20.00;47.10;;;;;;5057418;28;19970;-60
2023/12/22 03:01:27;;;;;;;;;;;20.00;47.10;;;;;;5057374;28;19928;-60
2023/12/22 03:03:54;;;;;;;;;;;20.10;47.20;;;;;;5061878;28;19920;-60
2023/12/22 03:06:21;;;;;;;;;;;20.00;47.10;;;;;;5059734;28;19951;-61
2023/12/22 03:08:48;;;;;;;;;;;20.00;47.20;;;;;;5056670;28;19942;-61
2023/12/22 03:11:14;;;;;;;;;;;20.10;47.20;;;;;;5071401;28;19947;-60
2023/12/22 03:13:41;;;;;;;;;;;20.10;47.30;;;;;;5065999;28;19971;-61
2023/12/22 03:16:10;;;;;;;;;;;20.10;47.30;;;;;;5059240;28;19925;-61
2023/12/22 03:18:38;;;;;;;;;;;20.00;47.20;;;;;;5068521;28;19925;-61
2023/12/22 03:21:05;;;;;;;;;;;20.10;47.30;;;;;;5070294;28;19925;-61
2023/12/22 03:23:31;;;;;;;;;;;20.00;47.10;;;;;;5055849;28;19964;-61
2023/12/22 03:25:58;;;;;;;;;;;20.10;47.30;;;;;;5051220;28;19920;-60
2023/12/22 03:28:25;;;;;;;;;;;20.10;47.20;;;;;;5051945;28;19928;-61
2023/12/22 03:30:51;;;;;;;;;;;20.00;47.20;;;;;;5059636;28;20349;-61
2023/12/22 03:33:20;;;;;;;;;;;20.10;47.30;;;;;;5067170;28;19925;-61
2023/12/22 03:35:46;;;;;;;;;;;20.10;47.30;;;;;;5072487;28;19920;-61
2023/12/22 03:38:13;;;;;;;;;;;20.10;47.30;;;;;;5054844;28;19939;-61
2023/12/22 03:40:40;;;;;;;;;;;20.00;47.20;;;;;;5062357;28;19920;-60
2023/12/22 03:43:06;;;;;;;;;;;20.00;47.20;;;;;;5070411;28;19920;-62
2023/12/22 03:45:33;;;;;;;;;;;20.10;47.30;;;;;;5065876;28;19933;-62
2023/12/22 03:48:00;;;;;;;;;;;20.10;47.30;;;;;;5063960;28;19981;-62
2023/12/22 03:50:28;;;;;;;;;;;20.00;47.20;;;;;;5071385;28;19948;-62
2023/12/22 03:52:54;;;;;;;;;;;20.10;47.30;;;;;;5075180;28;19924;-62
2023/12/22 03:55:21;;;;;;;;;;;20.10;47.30;;;;;;5068600;28;19920;-62
2023/12/22 03:57:48;;;;;;;;;;;20.00;47.20;;;;;;5050647;28;20214;-63
2023/12/22 04:00:16;;;;;;;;;;;20.10;47.30;;;;;;5057180;28;19981;-62
2023/12/22 04:02:43;;;;;;;;;;;20.00;47.20;;;;;;5070517;28;20012;-61
2023/12/22 04:05:11;;;;;;;;;;;20.00;47.20;;;;;;5069714;28;19978;-61
2023/12/22 04:07:39;;;;;;;;;;;20.10;47.30;;;;;;5070254;28;19978;-62
2023/12/22 04:10:07;;;;;;;;;;;20.00;47.20;;;;;;5063427;28;19928;-62
2023/12/22 04:12:34;;;;;;;;;;;20.00;47.20;;;;;;5062725;28;19925;-62
2023/12/22 04:15:00;;;;;;;;;;;20.00;47.20;;;;;;5059617;28;19998;-62
2023/12/22 04:17:27;;;;;;;;;;;20.00;47.20;;;;;;5061028;28;19920;-62
2023/12/22 04:19:54;;;;;;;;;;;20.00;47.20;;;;;;5043278;28;19975;-62
2023/12/22 04:22:20;;;;;;;;;;;20.00;47.30;;;;;;5062327;28;19924;-62
2023/12/22 04:24:48;;;;;;;;;;;20.00;47.30;;;;;;5063288;28;19921;-61
2023/12/22 04:27:15;;;;;;;;;;;20.00;47.20;;;;;;5060215;28;20062;-62
2023/12/22 04:29:42;;;;;;;;;;;20.00;47.20;;;;;;5066434;28;19920;-62
2023/12/22 04:32:08;;;;;;;;;;;20.00;47.20;;;;;;5062495;28;19981;-61
2023/12/22 04:34:35;;;;;;;;;;;20.00;47.30;;;;;;5054428;28;19931;-61
2023/12/22 04:37:02;;;;;;;;;;;20.00;47.30;;;;;;5058642;28;19921;-61
2023/12/22 04:39:29;;;;;;;;;;;20.00;47.30;;;;;;5052281;28;19974;-62
2023/12/22 04:41:57;;;;;;;;;;;20.00;47.30;;;;;;5067932;28;19928;-62
2023/12/22 04:44:24;;;;;;;;;;;20.00;47.30;;;;;;5056531;28;19928;-61
2023/12/22 04:46:50;;;;;;;;;;;20.00;47.30;;;;;;5050734;28;19960;-61
2023/12/22 04:49:18;;;;;;;;;;;20.00;47.30;;;;;;5067348;28;19987;-61
2023/12/22 04:51:44;;;;;;;;;;;20.00;47.30;;;;;;5063336;28;19931;-62
2023/12/22 04:54:11;;;;;;;;;;;20.00;47.30;;;;;;5062930;28;19975;-61
2023/12/22 04:56:38;;;;;;;;;;;20.00;47.30;;;;;;5058173;28;19920;-61
2023/12/22 04:59:06;;;;;;;;;;;20.00;47.30;;;;;;5056666;28;19925;-61
2023/12/22 05:01:33;;;;;;;;;;;20.10;47.40;;;;;;5052553;28;19982;-62
2023/12/22 05:03:59;;;;;;;;;;;20.00;47.30;;;;;;5070660;28;19921;-61
2023/12/22 05:06:26;;;;;;;;;;;20.00;47.30;;;;;;5059197;28;19924;-61
2023/12/22 05:08:53;;;;;;;;;;;20.00;47.30;;;;;;5055431;28;19924;-61
2023/12/22 05:11:20;;;;;;;;;;;20.00;47.30;;;;;;5060048;28;19970;-62
2023/12/22 05:13:46;;;;;;;;;;;20.00;47.30;;;;;;5070285;28;19928;-62
2023/12/22 05:16:15;;;;;;;;;;;20.00;47.30;;;;;;5069669;28;19977;-61
2023/12/22 05:18:41;;;;;;;;;;;20.00;47.30;;;;;;5069491;28;19990;-61
2023/12/22 05:21:08;;;;;;;;;;;20.00;47.50;;;;;;5069255;28;19931;-62
2023/12/22 05:23:35;;;;;;;;;;;20.00;47.30;;;;;;5069249;28;20370;-62
2023/12/22 05:26:03;;;;;;;;;;;20.00;47.30;;;;;;5059644;28;19925;-62
2023/12/22 05:28:30;;;;;;;;;;;20.00;47.40;;;;;;5064807;28;19920;-61
2023/12/22 05:30:56;;;;;;;;;;;20.00;47.30;;;;;;5061694;28;19943;-62
2023/12/22 05:33:24;;;;;;;;;;;20.00;47.30;;;;;;5064899;28;19978;-62
2023/12/22 05:35:51;;;;;;;;;;;20.00;47.30;;;;;;5063864;28;19928;-61
2023/12/22 05:38:18;;;;;;;;;;;20.00;47.30;;;;;;5066945;28;19920;-62
2023/12/22 05:40:45;;;;;;;;;;;20.00;47.30;;;;;;5069811;28;19921;-62
2023/12/22 05:43:11;;;;;;;;;;;20.00;47.30;;;;;;5068928;28;19924;-61
2023/12/22 05:45:38;;;;;;;;;;;20.00;47.30;;;;;;5058371;28;19971;-61
2023/12/22 05:48:06;;;;;;;;;;;20.00;47.30;;;;;;5058480;28;19966;-61
2023/12/22 05:50:34;;;;;;;;;;;20.00;47.30;;;;;;5057510;28;19933;-62
2023/12/22 05:53:01;;;;;;;;;;;20.00;47.30;;;;;;5062007;28;19925;-61
2023/12/22 05:55:29;;;;;;;;;;;20.00;47.30;;;;;;5061143;28;19978;-62
2023/12/22 05:57:56;;;;;;;;;;;20.00;47.30;;;;;;5055629;28;19963;-61
2023/12/22 06:00:22;;;;;;;;;;;20.00;47.30;;;;;;5066984;28;19927;-62
2023/12/22 06:02:49;;;;;;;;;;;20.00;47.30;;;;;;5060370;28;19921;-61
2023/12/22 06:05:16;;;;;;;;;;;20.00;47.30;;;;;;5052688;28;19921;-62
2023/12/22 06:07:44;;;;;;;;;;;20.00;47.30;;;;;;5056789;28;19970;-63
2023/12/22 06:10:10;;;;;;;;;;;20.00;47.30;;;;;;5068148;28;19974;-62
2023/12/22 06:12:37;;;;;;;;;;;20.00;47.30;;;;;;5063544;28;19920;-63
2023/12/22 06:15:04;;;;;;;;;;;20.00;47.30;;;;;;5070708;28;19921;-62
2023/12/22 06:17:31;;;;;;;;;;;20.00;47.30;;;;;;5084637;28;19921;-62
2023/12/22 06:19:58;;;;;;;;;;;20.00;47.30;;;;;;5052487;28;19974;-62
2023/12/22 06:22:24;;;;;;;;;;;20.00;47.90;;;;;;5068968;28;19925;-61
2023/12/22 06:24:52;;;;;;;;;;;20.00;47.40;;;;;;5065407;28;19974;-61
2023/12/22 06:27:19;;;;;;;;;;;20.00;47.30;;;;;;5072201;28;19981;-61
2023/12/22 06:29:46;;;;;;;;;;;20.00;47.40;;;;;;5065971;28;19920;-61
2023/12/22 06:32:13;;;;;;;;;;;20.00;47.30;;;;;;5069554;28;20046;-62
2023/12/22 06:34:40;;;;;;;;;;;20.00;47.40;;;;;;5072552;28;19928;-61
2023/12/22 06:37:07;;;;;;;;;;;20.00;47.40;;;;;;5064911;28;19975;-61
2023/12/22 06:39:34;;;;;;;;;;;20.00;47.40;;;;;;5060346;28;20369;-62
2023/12/22 06:42:03;;;;;;;;;;;20.00;47.40;;;;;;5057491;28;19927;-62
2023/12/22 06:44:31;;;;;;;;;;;20.00;47.40;;;;;;5052153;28;19925;-61
2023/12/22 06:46:58;;;;;;;;;;;20.00;47.30;;;;;;5066042;28;19924;-61
2023/12/22 06:49:25;;;;;;;;;;;20.00;47.40;;;;;;5056240;28;19966;-61
2023/12/22 06:51:52;;;;;;;;;;;20.00;47.40;;;;;;5069183;28;20078;-62
2023/12/22 06:54:18;;;;;;;;;;;20.00;47.40;;;;;;5067675;28;19959;-61
2023/12/22 06:56:45;;;;;;;;;;;20.00;47.40;;;;;;5071586;28;19928;-61
2023/12/22 06:59:13;;;;;;;;;;;20.00;47.40;;;;;;5070501;28;19928;-62
2023/12/22 07:01:40;;;;;;;;;;;20.00;47.40;;;;;;5070426;28;19920;-62
2023/12/22 07:04:07;;;;;;;;;;;20.00;47.40;;;;;;5072234;28;19926;-61
2023/12/22 07:06:34;;;;;;;;;;;20.00;47.30;;;;;;5071894;28;19920;-61
2023/12/22 07:09:20;;;;;;;;;;;20.00;47.30;;;;;;5071917;28;19936;-61
2023/12/22 07:11:47;;;;;;;;;;;20.00;47.40;;;;;;5065370;28;19946;-59
2023/12/22 07:14:16;;;;;;;;;;;20.00;41.40;;;;;;5073452;28;19925;-58
2023/12/22 07:16:43;;;;;;;;;;;19.80;38.30;;;;;;5066853;28;19928;-59
2023/12/22 07:19:10;;;;;;;;;;;19.60;34.60;;;;;;5070915;28;19964;-59
2023/12/22 07:21:37;;;;;;;;;;;19.30;33.60;;;;;;5068458;28;19974;-62
2023/12/22 07:24:04;;;;;;;;;;;19.00;35.30;;;;;;5070589;28;19960;-60
2023/12/22 07:26:31;;;;;;;;;;;18.80;37.20;;;;;;5067527;28;19924;-58
2023/12/22 07:28:58;;;;;;;;;;;18.70;38.60;;;;;;5068326;28;19932;-60
2023/12/22 07:31:26;;;;;;;;;;;18.60;39.50;;;;;;5069337;28;20019;-60
2023/12/22 07:33:53;;;;;;;;;;;18.70;40.10;;;;;;5071282;28;19977;-59
2023/12/22 07:36:21;;;;;;;;;;;18.70;40.60;;;;;;5069437;28;19932;-60
2023/12/22 07:38:47;;;;;;;;;;;18.80;41.30;;;;;;5063285;28;19956;-58
2023/12/22 07:41:14;;;;;;;;;;;18.80;41.60;;;;;;5066077;28;19928;-60
2023/12/22 07:43:42;;;;;;;;;;;18.90;42.00;;;;;;5064027;28;19952;-59
2023/12/22 07:46:09;;;;;;;;;;;18.90;42.20;;;;;;5068399;28;19931;-61
2023/12/22 07:48:37;;;;;;;;;;;19.00;42.40;;;;;;5069697;28;19920;-60
2023/12/22 07:51:04;;;;;;;;;;;19.00;42.50;;;;;;5069615;28;19924;-60
2023/12/22 07:53:30;;;;;;;;;;;19.10;42.70;;;;;;5070361;28;19947;-60
2023/12/22 07:55:59;;;;;;;;;;;19.10;42.80;;;;;;5064236;28;19966;-60
2023/12/22 07:58:25;;;;;;;;;;;19.10;42.90;;;;;;5069896;28;19920;-59
2023/12/22 08:00:52;;;;;;;;;;;19.20;43.10;;;;;;5068190;28;20356;-59
2023/12/22 08:03:19;;;;;;;;;;;19.20;43.20;;;;;;5068093;28;19924;-59
2023/12/22 08:05:47;;;;;;;;;;;19.30;43.30;;;;;;5067839;28;19982;-58
2023/12/22 08:08:15;;;;;;;;;;;19.30;43.40;;;;;;5068464;28;20019;-59
2023/12/22 08:10:42;;;;;;;;;;;19.30;43.50;;;;;;5069309;28;19974;-59
2023/12/22 08:13:08;;;;;;;;;;;19.30;43.60;;;;;;5069811;28;19978;-60
2023/12/22 08:15:35;;;;;;;;;;;19.40;43.80;;;;;;5066914;28;19921;-59
2023/12/22 08:18:02;;;;;;;;;;;19.40;43.80;;;;;;5051345;28;19920;-59
2023/12/22 08:20:29;;;;;;;;;;;19.40;43.90;;;;;;5066236;28;19974;-58
2023/12/22 08:22:57;;;;;;;;;;;19.40;44.00;;;;;;5070705;28;19956;-59
2023/12/22 08:25:23;;;;;;;;;;;19.50;44.10;;;;;;5064450;28;20296;-59
2023/12/22 08:27:50;;;;;;;;;;;19.50;44.10;;;;;;5065888;28;19995;-58
2023/12/22 08:30:17;;;;;;;;;;;19.50;44.10;;;;;;5067190;28;19924;-60
2023/12/22 08:32:44;;;;;;;;;;;19.50;44.20;;;;;;5068886;28;19920;-59
2023/12/22 08:35:11;;;;;;;;;;;19.50;44.20;;;;;;5069705;28;19974;-59
2023/12/22 08:37:38;;;;;;;;;;;19.60;44.40;;;;;;5069038;28;19960;-60
2023/12/22 08:40:07;;;;;;;;;;;19.60;44.40;;;;;;5068084;28;19920;-58
2023/12/22 08:42:33;;;;;;;;;;;19.60;44.40;;;;;;5067273;28;19974;-58
2023/12/22 08:45:00;;;;;;;;;;;19.60;44.50;;;;;;5069481;28;19956;-58
2023/12/22 08:47:27;;;;;;;;;;;19.60;44.50;;;;;;5067869;28;19982;-60
2023/12/22 08:49:53;;;;;;;;;;;19.60;44.50;;;;;;5066797;28;19924;-58
2023/12/22 08:52:20;;;;;;;;;;;19.70;44.60;;;;;;5068625;28;19928;-58
2023/12/22 08:54:47;;;;;;;;;;;19.70;44.60;;;;;;5070361;28;19974;-60
2023/12/22 08:57:15;;;;;;;;;;;19.70;44.60;;;;;;5067056;28;19928;-60
2023/12/22 08:59:42;;;;;;;;;;;19.70;44.70;;;;;;5068299;28;19920;-59
2023/12/22 09:02:08;;;;;;;;;;;19.70;44.70;;;;;;5068381;28;19925;-59
2023/12/22 09:04:35;;;;;;;;;;;19.70;44.70;;;;;;5068222;28;19982;-60
2023/12/22 09:07:02;;;;;;;;;;;19.70;45.00;;;;;;5068338;28;19931;-58
2023/12/22 09:09:29;;;;;;;;;;;19.70;44.70;;;;;;5067892;28;19920;-59
2023/12/22 09:11:55;;;;;;;;;;;19.70;44.70;;;;;;5068622;28;19920;-58
2023/12/22 09:14:24;;;;;;;;;;;19.80;44.80;;;;;;5067412;28;19920;-59
2023/12/22 09:16:50;;;;;;;;;;;19.80;44.80;;;;;;5063343;28;19924;-60
2023/12/22 09:19:17;;;;;;;;;;;19.80;44.80;;;;;;5068627;28;19940;-58
2023/12/22 09:21:44;;;;;;;;;;;19.80;44.90;;;;;;5062852;28;19929;-59
2023/12/22 09:24:12;;;;;;;;;;;19.80;44.90;;;;;;5065458;28;19924;-60
2023/12/22 09:26:39;;;;;;;;;;;19.80;44.80;;;;;;5065227;28;20312;-59
2023/12/22 09:29:06;;;;;;;;;;;19.80;44.90;;;;;;5062288;28;19928;-58
2023/12/22 09:31:34;;;;;;;;;;;19.80;44.90;;;;;;5067161;28;19991;-58
2023/12/22 09:34:00;;;;;;;;;;;19.90;45.00;;;;;;5068618;28;19932;-58
2023/12/22 09:36:27;;;;;;;;;;;19.90;45.00;;;;;;5063861;28;20181;-58
2023/12/22 09:38:54;;;;;;;;;;;19.90;45.10;;;;;;5073247;28;19932;-59
2023/12/22 09:41:21;;;;;;;;;;;19.90;45.10;;;;;;5068123;28;19985;-59
2023/12/22 09:43:47;;;;;;;;;;;19.90;45.10;;;;;;5070578;28;19920;-60
2023/12/22 09:46:14;;;;;;;;;;;19.90;45.10;;;;;;5069709;28;19970;-60
2023/12/22 09:48:42;;;;;;;;;;;19.90;45.10;;;;;;5071232;28;19921;-59
2023/12/22 09:51:10;;;;;;;;;;;19.90;45.10;;;;;;5071428;28;19974;-59
2023/12/22 09:53:37;;;;;;;;;;;19.90;45.10;;;;;;5070526;28;19990;-60
2023/12/22 09:56:04;;;;;;;;;;;20.00;45.30;;;;;;5051879;28;19920;-58
2023/12/22 09:58:30;;;;;;;;;;;19.90;45.20;;;;;;5069359;28;19927;-60
2023/12/22 10:00:57;;;;;;;;;;;19.90;45.20;;;;;;5071923;28;19920;-59
2023/12/22 10:03:24;;;;;;;;;;;19.90;45.20;;;;;;5066564;28;19925;-59
2023/12/22 10:05:52;;;;;;;;;;;19.90;45.20;;;;;;5070573;28;19927;-57
2023/12/22 10:08:19;;;;;;;;;;;20.00;45.30;;;;;;5067231;28;19970;-62
2023/12/22 10:10:47;;;;;;;;;;;19.90;45.20;;;;;;5067456;28;20011;-59
2023/12/22 10:13:14;;;;;;;;;;;19.90;45.30;;;;;;5068869;28;20042;-60
2023/12/22 10:15:41;;;;;;;;;;;20.00;45.40;;;;;;5069972;28;19936;-59
2023/12/22 10:18:08;;;;;;;;;;;20.00;45.40;;;;;;5062091;28;19921;-58
2023/12/22 10:20:35;;;;;;;;;;;20.00;45.40;;;;;;5066915;28;20432;-61
2023/12/22 10:23:03;;;;;;;;;;;20.00;45.40;;;;;;5065188;28;19940;-59
2023/12/22 10:25:30;;;;;;;;;;;20.00;45.40;;;;;;5063089;28;19979;-60
2023/12/22 10:27:57;;;;;;;;;;;20.00;45.40;;;;;;5068843;28;19946;-60
2023/12/22 10:30:24;;;;;;;;;;;20.00;45.40;;;;;;5066491;28;19960;-59
2023/12/22 10:32:51;;;;;;;;;;;20.00;45.50;;;;;;5178945;22;19940;-61
2023/12/22 10:35:18;;;;;;;;;;;20.00;45.50;;;;;;5026697;28;19925;-61
2023/12/22 10:37:46;;;;;;;;;;;20.00;45.50;;;;;;5036066;28;19932;-60
2023/12/22 10:40:14;;;;;;;;;;;20.00;45.50;;;;;;5031719;28;19921;-60
2023/12/22 10:42:41;;;;;;;;;;;20.00;45.50;;;;;;5032391;28;19929;-59
2023/12/22 10:45:08;;;;;;;;;;;20.00;45.50;;;;;;5032939;28;19964;-59
2023/12/22 10:47:35;;;;;;;;;;;20.10;45.60;;;;;;5034332;28;19975;-59
2023/12/22 10:50:02;;;;;;;;;;;20.10;45.60;;;;;;5031799;28;19933;-59
2023/12/22 10:52:29;;;;;;;;;;;20.10;45.60;;;;;;5029975;28;19936;-60
2023/12/22 10:54:57;;;;;;;;;;;20.10;45.60;;;;;;5029682;28;19925;-60
2023/12/22 10:57:26;;;;;;;;;;;20.10;45.60;;;;;;5031496;28;19921;-60
2023/12/22 10:59:53;;;;;;;;;;;20.10;45.60;;;;;;5035093;28;19921;-60
2023/12/22 11:02:20;;;;;;;;;;;20.10;45.60;;;;;;5030176;28;19921;-60
2023/12/22 11:04:48;;;;;;;;;;;20.10;45.70;;;;;;5029277;28;19928;-61
2023/12/22 11:07:15;;;;;;;;;;;20.10;45.60;;;;;;5035224;28;19925;-59
2023/12/22 11:09:42;;;;;;;;;;;20.10;45.70;;;;;;5031150;28;19934;-59
2023/12/22 11:12:08;;;;;;;;;;;20.10;45.70;;;;;;5032655;28;19975;-61
2023/12/22 11:14:37;;;;;;;;;;;20.10;45.70;;;;;;5028939;28;19925;-61
2023/12/22 11:17:04;;;;;;;;;;;20.10;45.70;;;;;;5028546;28;19928;-60
2023/12/22 11:19:31;;;;;;;;;;;20.10;45.70;;;;;;5030912;28;19927;-60
2023/12/22 11:21:58;;;;;;;;;;;20.10;45.70;;;;;;5031213;28;19921;-62
2023/12/22 11:24:25;;;;;;;;;;;20.10;45.80;;;;;;5029927;28;19933;-62
2023/12/22 11:26:52;;;;;;;;;;;20.10;45.70;;;;;;5028826;28;20436;-60
2023/12/22 11:29:19;;;;;;;;;;;20.10;45.70;;;;;;5036186;28;19932;-59
2023/12/22 11:31:47;;;;;;;;;;;20.20;45.90;;;;;;5032707;28;19967;-62
2023/12/22 11:34:14;;;;;;;;;;;20.20;45.90;;;;;;5030603;28;19925;-61
2023/12/22 11:36:41;;;;;;;;;;;20.20;45.90;;;;;;5029267;28;19921;-61
2023/12/22 11:39:07;;;;;;;;;;;20.20;45.90;;;;;;5027211;28;19929;-61
2023/12/22 11:41:35;;;;;;;;;;;20.10;45.80;;;;;;5028892;28;19937;-61
2023/12/22 11:44:01;;;;;;;;;;;20.20;45.90;;;;;;5030175;28;19925;-62
2023/12/22 11:46:30;;;;;;;;;;;20.20;45.90;;;;;;5028681;28;19929;-61
2023/12/22 11:48:58;;;;;;;;;;;20.20;45.90;;;;;;5030588;28;19928;-62
2023/12/22 11:51:26;;;;;;;;;;;20.20;45.90;;;;;;5026925;28;19933;-62
2023/12/22 11:53:52;;;;;;;;;;;20.20;45.90;;;;;;5029111;28;19948;-62
2023/12/22 11:56:20;;;;;;;;;;;20.20;45.90;;;;;;5029564;28;19921;-62
2023/12/22 11:58:51;;;;;;;;;;;20.20;46.00;;;;;;5029352;28;19921;-61
2023/12/22 12:01:18;;;;;;;;;;;20.10;45.90;;;;;;5029813;28;19948;-60
2023/12/22 12:03:49;;;;;;;;;;;20.20;46.00;;;;;;5025912;28;19987;-61
2023/12/22 12:06:17;;;;;;;;;;;20.20;46.00;;;;;;5026915;28;19971;-60
2023/12/22 12:08:44;;;;;;;;;;;20.20;46.00;;;;;;5032023;28;19921;-59
2023/12/22 12:11:11;;;;;;;;;;;20.20;46.00;;;;;;5028043;28;19931;-59
2023/12/22 12:13:39;;;;;;;;;;;20.20;46.00;;;;;;5029584;28;19979;-59
2023/12/22 12:16:06;;;;;;;;;;;20.20;46.10;;;;;;5031147;28;19921;-60
2023/12/22 12:18:33;;;;;;;;;;;20.20;46.10;;;;;;5029243;28;19925;-59
2023/12/22 12:21:00;;;;;;;;;;;20.20;46.10;;;;;;5027597;28;19928;-60
2023/12/22 12:23:28;;;;;;;;;;;20.20;46.10;;;;;;5025155;28;19928;-61
2023/12/22 12:25:55;;;;;;;;;;;20.20;46.10;;;;;;5029659;28;19921;-59
2023/12/22 12:28:26;;;;;;;;;;;20.20;46.10;;;;;;5030571;28;19925;-60
2023/12/22 12:30:57;;;;;;;;;;;20.20;46.10;;;;;;5029777;28;20326;-59
2023/12/22 12:33:24;;;;;;;;;;;20.20;46.10;;;;;;5029063;28;19971;-60
2023/12/22 12:35:51;;;;;;;;;;;20.20;46.70;;;;;;5025757;28;19921;-59
2023/12/22 12:38:17;;;;;;;;;;;20.20;46.10;;;;;;5020524;28;19921;-61
2023/12/22 12:40:46;;;;;;;;;;;20.20;46.10;;;;;;5026272;28;19940;-59
2023/12/22 12:43:12;;;;;;;;;;;20.20;46.10;;;;;;5028766;28;19931;-59
2023/12/22 12:45:39;;;;;;;;;;;20.20;46.10;;;;;;5023984;28;20325;-61
2023/12/22 12:48:05;;;;;;;;;;;20.20;46.10;;;;;;5028553;28;19921;-61
2023/12/22 12:50:32;;;;;;;;;;;20.20;46.10;;;;;;5029243;28;19971;-60
2023/12/22 12:52:59;;;;;;;;;;;20.20;46.20;;;;;;5028972;28;19944;-58
2023/12/22 12:55:26;;;;;;;;;;;20.20;46.20;;;;;;5027673;28;19921;-61
2023/12/22 12:57:54;;;;;;;;;;;20.20;46.20;;;;;;5026592;28;20345;-60
2023/12/22 13:00:25;;;;;;;;;;;20.20;46.20;;;;;;5029035;28;20262;-60
2023/12/22 13:02:51;;;;;;;;;;;20.30;46.30;;;;;;5028741;28;19951;-62
2023/12/22 13:05:22;;;;;;;;;;;20.20;46.20;;;;;;5030890;28;19928;-61
2023/12/22 13:07:48;;;;;;;;;;;20.30;46.30;;;;;;5026901;28;20216;-61
2023/12/22 13:10:22;;;;;;;;;;;20.30;46.30;;;;;;5031538;28;19921;-59
2023/12/22 13:12:49;;;;;;;;;;;20.20;46.20;;;;;;5027894;28;19921;-61
2023/12/22 13:15:17;;;;;;;;;;;20.30;46.40;;;;;;5030959;28;19944;-59
2023/12/22 13:17:44;;;;;;;;;;;20.30;46.40;;;;;;5028596;28;19921;-60
2023/12/22 13:20:12;;;;;;;;;;;20.30;46.40;;;;;;5025274;28;19925;-59
2023/12/22 13:22:38;;;;;;;;;;;20.30;46.40;;;;;;5028987;28;19921;-60
2023/12/22 13:25:05;;;;;;;;;;;20.30;46.40;;;;;;5032084;28;19932;-60
2023/12/22 13:27:32;;;;;;;;;;;20.30;46.40;;;;;;5029918;28;19921;-60
2023/12/22 13:29:59;;;;;;;;;;;20.30;46.40;;;;;;5038207;28;19933;-60
2023/12/22 13:32:27;;;;;;;;;;;20.30;46.40;;;;;;5030843;28;19928;-60
2023/12/22 13:34:54;;;;;;;;;;;20.30;46.40;;;;;;5028517;28;19929;-60
2023/12/22 13:37:21;;;;;;;;;;;20.30;46.40;;;;;;5048830;28;19944;-61
2023/12/22 13:39:48;;;;;;;;;;;20.30;46.40;;;;;;5034914;28;19937;-58
2023/12/22 13:42:15;;;;;;;;;;;20.30;46.40;;;;;;5032289;28;19921;-59
2023/12/22 13:44:43;;;;;;;;;;;20.30;46.40;;;;;;5032334;28;20325;-62
2023/12/22 13:47:10;;;;;;;;;;;20.30;46.40;;;;;;5034484;28;19978;-62
2023/12/22 13:49:38;;;;;;;;;;;20.30;46.50;;;;;;5029285;28;20026;-60
2023/12/22 13:52:07;;;;;;;;;;;20.30;46.50;;;;;;5035261;28;19921;-61
2023/12/22 13:54:34;;;;;;;;;;;20.30;46.50;;;;;;5035437;28;19983;-60
2023/12/22 13:57:01;;;;;;;;;;;20.30;46.50;;;;;;5032887;28;19956;-60
2023/12/22 13:59:31;;;;;;;;;;;20.30;46.50;;;;;;5031362;28;19971;-59
2023/12/22 14:01:58;;;;;;;;;;;20.30;46.50;;;;;;5033189;28;19982;-59
2023/12/22 14:04:25;;;;;;;;;;;20.30;46.50;;;;;;5029841;28;19995;-59
2023/12/22 14:06:53;;;;;;;;;;;20.30;46.50;;;;;;5029291;28;20029;-61
2023/12/22 14:09:24;;;;;;;;;;;20.30;46.50;;;;;;5029490;28;19921;-61
2023/12/22 14:11:51;;;;;;;;;;;20.30;46.50;;;;;;5029386;28;20243;-60
2023/12/22 14:14:19;;;;;;;;;;;20.30;46.50;;;;;;5025335;28;19929;-60
2023/12/22 14:16:45;;;;;;;;;;;20.30;46.50;;;;;;5033763;28;19929;-61